createdAt,value
2024-01-15T00:00:31.486Z,0.91
2024-01-15T00:01:31.329Z,0.90
2024-01-15T00:02:31.285Z,0.91
2024-01-15T00:03:31.401Z,0.89
2024-01-15T00:04:31.508Z,0.89
2024-01-15T00:05:31.405Z,0.87
2024-01-15T00:06:31.515Z,0.90
2024-01-15T00:07:31.497Z,0.88
2024-01-15T00:08:31.445Z,0.89
2024-01-15T00:09:31.521Z,0.87
2024-01-15T00:10:31.541Z,0.89
2024-01-15T00:11:31.542Z,0.86
2024-01-15T00:12:31.649Z,0.90
2024-01-15T00:13:31.634Z,0.89
2024-01-15T00:14:31.676Z,0.87
2024-01-15T00:15:31.790Z,0.87
2024-01-15T00:16:31.710Z,0.88
2024-01-15T00:17:31.744Z,0.89
2024-01-15T00:18:31.892Z,0.84
2024-01-15T00:19:31.915Z,0.86
2024-01-15T00:20:31.847Z,0.88
2024-01-15T00:21:31.891Z,0.87
2024-01-15T00:22:31.910Z,0.86
2024-01-15T00:23:31.901Z,0.85
2024-01-15T00:24:31.979Z,0.84
2024-01-15T00:25:32.024Z,0.87
2024-01-15T00:26:31.980Z,0.86
2024-01-15T00:27:32.064Z,0.84
2024-01-15T00:28:32.048Z,0.86
2024-01-15T00:29:32.035Z,0.85
2024-01-15T00:30:32.145Z,0.87
2024-01-15T00:31:32.249Z,0.88
2024-01-15T00:32:32.164Z,0.85
2024-01-15T00:33:32.254Z,0.85
2024-01-15T00:34:32.306Z,0.85
2024-01-15T00:35:32.210Z,0.84
2024-01-15T00:36:32.243Z,0.85
2024-01-15T00:37:32.229Z,0.85
2024-01-15T00:38:32.277Z,0.85
2024-01-15T00:39:32.322Z,0.84
2024-01-15T00:40:32.324Z,0.84
2024-01-15T00:41:32.314Z,0.84
2024-01-15T00:42:32.461Z,0.83
2024-01-15T00:43:32.427Z,0.83
2024-01-15T00:44:32.432Z,0.84
2024-01-15T00:45:32.567Z,0.82
2024-01-15T00:46:32.570Z,0.83
2024-01-15T00:47:32.669Z,0.84
2024-01-15T00:48:32.883Z,0.84
2024-01-15T00:49:32.797Z,0.83
2024-01-15T00:50:32.740Z,0.82
2024-01-15T00:51:32.748Z,0.84
2024-01-15T00:52:32.853Z,0.83
2024-01-15T00:53:32.877Z,0.82
2024-01-15T00:54:32.978Z,0.82
2024-01-15T00:55:32.983Z,0.81
2024-01-15T00:56:33.025Z,0.82
2024-01-15T00:57:33.110Z,0.81
2024-01-15T00:58:33.122Z,0.82
2024-01-15T00:59:33.181Z,0.81
2024-01-15T01:00:33.305Z,0.81
2024-01-15T01:01:33.330Z,0.81
2024-01-15T01:02:33.321Z,0.81
2024-01-15T01:03:33.414Z,0.80
2024-01-15T01:04:33.435Z,0.81
2024-01-15T01:05:33.477Z,0.80
2024-01-15T01:06:34.579Z,0.78
2024-01-15T01:07:33.578Z,0.80
2024-01-15T01:08:33.597Z,0.79
2024-01-15T01:09:33.625Z,0.79
2024-01-15T01:10:33.697Z,0.78
2024-01-15T01:11:33.724Z,0.78
2024-01-15T01:12:33.822Z,0.79
2024-01-15T01:13:33.801Z,0.78
2024-01-15T01:14:33.841Z,0.79
2024-01-15T01:15:33.942Z,0.79
2024-01-15T01:16:33.929Z,0.77
2024-01-15T01:17:34.080Z,0.79
2024-01-15T01:18:34.185Z,0.77
2024-01-15T01:19:34.236Z,0.78
2024-01-15T01:20:34.204Z,0.77
2024-01-15T01:21:34.213Z,0.77
2024-01-15T01:22:34.207Z,0.78
2024-01-15T01:23:34.304Z,0.76
2024-01-15T01:24:34.311Z,0.77
2024-01-15T01:25:34.368Z,0.76
2024-01-15T01:26:34.371Z,0.75
2024-01-15T01:27:34.470Z,0.76
2024-01-15T01:28:34.480Z,0.75
2024-01-15T01:29:34.544Z,0.77
2024-01-15T01:30:34.657Z,0.76
2024-01-15T01:31:34.651Z,0.76
2024-01-15T01:32:34.760Z,0.77
2024-01-15T01:33:34.741Z,0.76
2024-01-15T01:34:35.059Z,0.75
2024-01-15T01:35:34.767Z,0.76
2024-01-15T01:36:34.853Z,0.76
2024-01-15T01:37:34.859Z,0.76
2024-01-15T01:38:34.892Z,0.75
2024-01-15T01:39:35.029Z,0.76
2024-01-15T01:40:34.985Z,0.75
2024-01-15T01:41:35.022Z,0.75
2024-01-15T01:42:35.084Z,0.76
2024-01-15T01:43:35.120Z,0.76
2024-01-15T01:44:35.104Z,0.75
2024-01-15T01:45:35.174Z,0.75
2024-01-15T01:46:35.152Z,0.75
2024-01-15T01:47:35.252Z,0.75
2024-01-15T01:48:35.356Z,0.76
2024-01-15T01:49:35.374Z,0.75
2024-01-15T01:50:35.355Z,0.76
2024-01-15T01:51:35.337Z,0.75
2024-01-15T01:52:35.366Z,0.76
2024-01-15T01:53:35.392Z,0.78
2024-01-15T01:54:35.479Z,0.77
2024-01-15T01:55:35.451Z,0.77
2024-01-15T01:56:35.494Z,0.76
2024-01-15T01:57:35.544Z,0.78
2024-01-15T01:58:35.573Z,0.76
2024-01-15T01:59:35.569Z,0.77
2024-01-15T02:00:35.643Z,0.76
2024-01-15T02:01:35.689Z,0.77
2024-01-15T02:02:35.770Z,0.75
2024-01-15T02:03:35.809Z,0.75
2024-01-15T02:04:35.822Z,0.77
2024-01-15T02:05:35.891Z,0.77
2024-01-15T02:06:35.953Z,0.75
2024-01-15T02:07:35.846Z,0.77
2024-01-15T02:08:35.909Z,0.77
2024-01-15T02:09:36.023Z,0.77
2024-01-15T02:10:35.957Z,0.76
2024-01-15T02:11:35.995Z,0.77
2024-01-15T02:12:36.084Z,0.76
2024-01-15T02:13:36.064Z,0.76
2024-01-15T02:14:36.083Z,0.74
2024-01-15T02:15:36.162Z,0.77
2024-01-15T02:16:36.149Z,0.76
2024-01-15T02:17:36.204Z,0.77
2024-01-15T02:18:36.315Z,0.77
2024-01-15T02:19:36.449Z,0.76
2024-01-15T02:20:36.313Z,0.77
2024-01-15T02:21:36.359Z,0.77
2024-01-15T02:22:36.387Z,0.76
2024-01-15T02:23:36.394Z,0.76
2024-01-15T02:24:36.585Z,0.74
2024-01-15T02:25:36.476Z,0.77
2024-01-15T02:26:36.509Z,0.76
2024-01-15T02:27:36.544Z,0.77
2024-01-15T02:28:36.582Z,0.74
2024-01-15T02:29:36.576Z,0.76
2024-01-15T02:30:36.775Z,0.76
2024-01-15T02:31:36.751Z,0.77
2024-01-15T02:32:36.798Z,0.76
2024-01-15T02:33:36.959Z,0.77
2024-01-15T02:34:36.970Z,0.75
2024-01-15T02:35:36.779Z,0.77
2024-01-15T02:36:36.877Z,0.76
2024-01-15T02:37:36.848Z,0.76
2024-01-15T02:38:36.880Z,0.76
2024-01-15T02:39:36.967Z,0.78
2024-01-15T02:40:37.106Z,0.76
2024-01-15T02:41:36.982Z,0.75
2024-01-15T02:42:37.028Z,0.77
2024-01-15T02:43:37.011Z,0.74
2024-01-15T02:44:37.045Z,0.76
2024-01-15T02:45:37.221Z,0.75
2024-01-15T02:46:37.154Z,0.77
2024-01-15T02:47:38.163Z,0.75
2024-01-15T02:48:37.372Z,0.76
2024-01-15T02:49:37.289Z,0.76
2024-01-15T02:50:37.360Z,0.76
2024-01-15T02:51:37.404Z,0.74
2024-01-15T02:52:37.357Z,0.77
2024-01-15T02:53:37.370Z,0.76
2024-01-15T02:54:37.450Z,0.76
2024-01-15T02:55:37.423Z,0.75
2024-01-15T02:56:37.485Z,0.74
2024-01-15T02:57:37.585Z,0.75
2024-01-15T02:58:37.547Z,0.76
2024-01-15T02:59:37.559Z,0.76
2024-01-15T03:00:37.694Z,0.73
2024-01-15T03:01:37.682Z,0.74
2024-01-15T03:02:37.638Z,0.75
2024-01-15T03:03:37.814Z,0.75
2024-01-15T03:04:37.789Z,0.75
2024-01-15T03:05:37.813Z,0.74
2024-01-15T03:06:37.854Z,0.75
2024-01-15T03:07:37.804Z,0.73
2024-01-15T03:08:37.853Z,0.74
2024-01-15T03:10:37.917Z,0.71
2024-01-15T03:11:37.966Z,0.72
2024-01-15T03:12:38.049Z,0.73
2024-01-15T03:13:38.031Z,0.71
2024-01-15T03:14:38.695Z,0.74
2024-01-15T03:15:38.138Z,0.72
2024-01-15T03:16:38.084Z,0.73
2024-01-15T03:17:38.177Z,0.73
2024-01-15T03:18:38.195Z,0.72
2024-01-15T03:19:38.265Z,0.74
2024-01-15T03:20:38.216Z,0.72
2024-01-15T03:21:38.295Z,0.73
2024-01-15T03:22:38.310Z,0.72
2024-01-15T03:23:38.316Z,0.73
2024-01-15T03:24:38.428Z,0.71
2024-01-15T03:25:38.411Z,0.69
2024-01-15T03:26:38.440Z,0.69
2024-01-15T03:27:38.497Z,0.71
2024-01-15T03:28:38.500Z,0.71
2024-01-15T03:29:38.515Z,0.70
2024-01-15T03:30:38.622Z,0.71
2024-01-15T03:31:38.682Z,0.70
2024-01-15T03:32:38.685Z,0.71
2024-01-15T03:33:38.779Z,0.70
2024-01-15T03:34:38.819Z,0.71
2024-01-15T03:35:38.729Z,0.72
2024-01-15T03:36:38.822Z,0.69
2024-01-15T03:37:38.797Z,0.70
2024-01-15T03:38:38.822Z,0.70
2024-01-15T03:39:38.940Z,0.70
2024-01-15T03:40:39.101Z,0.70
2024-01-15T03:41:38.927Z,0.69
2024-01-15T03:42:38.990Z,0.69
2024-01-15T03:43:38.997Z,0.71
2024-01-15T03:44:39.019Z,0.68
2024-01-15T03:45:39.159Z,0.69
2024-01-15T03:46:39.087Z,0.69
2024-01-15T03:47:39.126Z,0.69
2024-01-15T03:48:39.212Z,0.68
2024-01-15T03:49:39.395Z,0.69
2024-01-15T03:50:39.199Z,0.70
2024-01-15T03:51:39.334Z,0.68
2024-01-15T03:52:39.228Z,0.68
2024-01-15T03:53:39.277Z,0.67
2024-01-15T03:54:39.335Z,0.68
2024-01-15T03:55:39.321Z,0.69
2024-01-15T03:56:40.149Z,0.66
2024-01-15T03:57:39.456Z,0.67
2024-01-15T03:58:39.410Z,0.68
2024-01-15T03:59:39.438Z,0.68
2024-01-15T04:00:39.532Z,0.66
2024-01-15T04:01:39.559Z,0.68
2024-01-15T04:02:39.562Z,0.66
2024-01-15T04:03:39.648Z,0.66
2024-01-15T04:04:39.810Z,0.68
2024-01-15T04:05:39.621Z,0.67
2024-01-15T04:06:39.750Z,0.65
2024-01-15T04:07:39.672Z,0.66
2024-01-15T04:08:39.682Z,0.66
2024-01-15T04:09:39.775Z,0.64
2024-01-15T04:10:39.740Z,0.67
2024-01-15T04:11:39.758Z,0.66
2024-01-15T04:12:39.847Z,0.66
2024-01-15T04:13:41.548Z,0.65
2024-01-15T04:14:39.814Z,0.66
2024-01-15T04:15:39.871Z,0.67
2024-01-15T04:16:39.834Z,0.68
2024-01-15T04:17:39.892Z,0.64
2024-01-15T04:18:39.922Z,0.66
2024-01-15T04:19:39.860Z,0.65
2024-01-15T04:20:47.002Z,0.50
2024-01-15T04:21:47.066Z,0.50
2024-01-15T04:22:46.988Z,0.50
2024-01-15T04:23:47.017Z,0.50
2024-01-15T04:24:47.022Z,0.50
2024-01-15T04:25:47.027Z,0.51
2024-01-15T04:26:47.017Z,0.51
2024-01-15T04:27:47.191Z,0.51
2024-01-15T04:28:47.029Z,0.51
2024-01-15T04:29:47.041Z,0.50
2024-01-15T04:30:47.120Z,0.52
2024-01-15T04:31:54.311Z,0.50
2024-01-15T04:32:54.367Z,0.50
2024-01-15T04:33:54.400Z,0.50
2024-01-15T04:34:54.448Z,0.50
2024-01-15T04:35:54.316Z,0.50
2024-01-15T04:36:54.327Z,0.51
2024-01-15T04:37:54.284Z,0.50
2024-01-15T04:38:54.288Z,0.50
2024-01-15T04:39:54.309Z,0.51
2024-01-15T04:40:56.937Z,0.51
2024-01-15T04:41:54.285Z,0.51
2024-01-15T04:42:54.365Z,0.51
2024-01-15T04:43:54.306Z,0.51
2024-01-15T04:44:54.294Z,0.50
2024-01-15T04:45:54.352Z,0.52
2024-01-15T04:46:54.336Z,0.51
2024-01-15T04:47:54.307Z,0.52
2024-01-15T04:48:54.406Z,0.53
2024-01-15T04:49:54.391Z,0.52
2024-01-15T04:50:54.291Z,0.51
2024-01-15T04:51:54.344Z,0.53
2024-01-15T04:52:54.321Z,0.52
2024-01-15T04:53:54.318Z,0.52
2024-01-15T04:54:54.357Z,0.52
2024-01-15T04:55:54.348Z,0.52
2024-01-15T04:56:54.337Z,0.53
2024-01-15T04:57:54.408Z,0.52
2024-01-15T04:58:54.377Z,0.52
2024-01-15T04:59:54.323Z,0.52
2024-01-15T05:00:54.488Z,0.50
2024-01-15T05:01:54.430Z,0.52
2024-01-15T05:02:54.346Z,0.51
2024-01-15T05:03:57.404Z,0.50
2024-01-15T05:04:54.349Z,0.50
2024-01-15T05:05:54.353Z,0.51
2024-01-15T05:06:54.421Z,0.51
2024-01-15T05:07:54.349Z,0.52
2024-01-15T05:08:54.365Z,0.53
2024-01-15T05:09:54.418Z,0.53
2024-01-15T05:10:54.364Z,0.52
2024-01-15T05:11:54.370Z,0.52
2024-01-15T05:12:54.385Z,0.52
2024-01-15T05:13:54.316Z,0.51
2024-01-15T05:14:54.327Z,0.52
2024-01-15T05:15:54.449Z,0.52
2024-01-15T05:16:54.382Z,0.53
2024-01-15T05:17:54.433Z,0.52
2024-01-15T05:18:54.440Z,0.53
2024-01-15T05:19:54.503Z,0.52
2024-01-15T05:20:54.348Z,0.53
2024-01-15T05:21:54.402Z,0.53
2024-01-15T05:22:54.368Z,0.52
2024-01-15T05:23:54.381Z,0.53
2024-01-15T05:24:54.456Z,0.52
2024-01-15T05:25:54.365Z,0.53
2024-01-15T05:26:54.411Z,0.52
2024-01-15T05:27:54.422Z,0.53
2024-01-15T05:28:54.378Z,0.51
2024-01-15T05:29:54.368Z,0.52
2024-01-15T05:30:54.442Z,0.52
2024-01-15T05:31:54.421Z,0.52
2024-01-15T05:32:54.447Z,0.53
2024-01-15T05:33:54.402Z,0.52
2024-01-15T05:34:54.450Z,0.53
2024-01-15T05:35:54.430Z,0.53
2024-01-15T05:36:54.418Z,0.52
2024-01-15T05:37:54.388Z,0.53
2024-01-15T05:38:54.394Z,0.52
2024-01-15T05:39:54.473Z,0.52
2024-01-15T05:40:54.417Z,0.52
2024-01-15T05:41:54.438Z,0.51
2024-01-15T05:42:54.507Z,0.53
2024-01-15T05:43:54.430Z,0.53
2024-01-15T05:44:54.423Z,0.53
2024-01-15T05:45:54.472Z,0.53
2024-01-15T05:46:54.414Z,0.53
2024-01-15T05:47:54.472Z,0.52
2024-01-15T05:48:54.558Z,0.52
2024-01-15T05:49:54.675Z,0.53
2024-01-15T05:50:54.397Z,0.53
2024-01-15T05:51:54.549Z,0.53
2024-01-15T05:52:54.496Z,0.53
2024-01-15T05:53:54.551Z,0.53
2024-01-15T05:54:54.560Z,0.52
2024-01-15T05:55:54.572Z,0.52
2024-01-15T05:56:54.621Z,0.51
2024-01-15T05:57:54.736Z,0.53
2024-01-15T05:58:54.681Z,0.53
2024-01-15T05:59:54.774Z,0.52
2024-01-15T06:01:19.149Z,0.52
2024-01-15T06:01:54.831Z,0.53
2024-01-15T06:02:54.786Z,0.53
2024-01-15T06:03:54.839Z,0.54
2024-01-15T06:04:54.815Z,0.53
2024-01-15T06:05:54.894Z,0.55
2024-01-15T06:06:54.850Z,0.55
2024-01-15T06:07:54.788Z,0.54
2024-01-15T06:08:54.787Z,0.55
2024-01-15T06:09:54.887Z,0.55
2024-01-15T06:10:54.829Z,0.54
2024-01-15T06:11:54.825Z,0.54
2024-01-15T06:12:54.867Z,0.54
2024-01-15T06:13:54.847Z,0.54
2024-01-15T06:14:54.816Z,0.55
2024-01-15T06:15:54.894Z,0.54
2024-01-15T06:16:54.810Z,0.54
2024-01-15T06:17:54.891Z,0.53
2024-01-15T06:18:54.965Z,0.55
2024-01-15T06:19:54.861Z,0.54
2024-01-15T06:20:54.805Z,0.54
2024-01-15T06:21:55.011Z,0.54
2024-01-15T06:22:54.784Z,0.54
2024-01-15T06:23:54.796Z,0.54
2024-01-15T06:24:54.923Z,0.53
2024-01-15T06:25:54.823Z,0.54
2024-01-15T06:26:54.808Z,0.54
2024-01-15T06:27:54.877Z,0.54
2024-01-15T06:28:54.836Z,0.54
2024-01-15T06:29:54.839Z,0.54
2024-01-15T06:30:54.903Z,0.54
2024-01-15T06:31:55.137Z,0.54
2024-01-15T06:32:54.942Z,0.53
2024-01-15T06:33:54.937Z,0.56
2024-01-15T06:34:54.854Z,0.58
2024-01-15T06:35:54.803Z,0.60
2024-01-15T06:36:55.097Z,0.68
2024-01-15T06:37:54.818Z,0.78
2024-01-15T06:38:54.856Z,0.84
2024-01-15T06:39:54.857Z,0.80
2024-01-15T06:40:54.847Z,0.77
2024-01-15T06:41:54.856Z,0.79
2024-01-15T06:42:54.900Z,0.73
2024-01-15T06:43:54.826Z,0.65
2024-01-15T06:44:54.871Z,0.55
2024-01-15T06:46:17.520Z,0.52
2024-01-15T06:46:54.836Z,0.52
2024-01-15T06:47:54.895Z,0.51
2024-01-15T06:48:55.014Z,0.50
2024-01-15T06:49:54.932Z,0.47
2024-01-15T06:50:54.888Z,0.46
2024-01-15T06:51:54.978Z,0.51
2024-01-15T06:52:54.835Z,0.50
2024-01-15T06:53:54.871Z,0.50
2024-01-15T06:54:54.978Z,0.53
2024-01-15T06:55:54.884Z,0.52
2024-01-15T06:56:54.873Z,0.54
2024-01-15T06:57:54.912Z,0.53
2024-01-15T06:58:54.908Z,0.54
2024-01-15T06:59:54.855Z,0.55
2024-01-15T07:00:54.967Z,0.56
2024-01-15T07:01:54.976Z,0.60
2024-01-15T07:02:54.907Z,0.60
2024-01-15T07:03:54.957Z,0.65
2024-01-15T07:04:54.902Z,0.66
2024-01-15T07:05:54.881Z,0.69
2024-01-15T07:06:54.956Z,0.72
2024-01-15T07:07:54.885Z,0.75
2024-01-15T07:08:54.899Z,0.78
2024-01-15T07:09:54.998Z,0.79
2024-01-15T07:10:55.081Z,0.85
2024-01-15T07:11:55.091Z,0.88
2024-01-15T07:12:55.273Z,0.92
2024-01-15T07:13:55.197Z,0.96
2024-01-15T07:14:55.237Z,1.00
2024-01-15T07:15:55.493Z,1.02
2024-01-15T07:16:55.333Z,1.08
2024-01-15T07:17:55.442Z,1.11
2024-01-15T07:18:55.507Z,1.14
2024-01-15T07:19:55.498Z,1.19
2024-01-15T07:20:55.497Z,1.22
2024-01-15T07:21:57.277Z,1.25
2024-01-15T07:22:55.584Z,1.28
2024-01-15T07:23:55.698Z,1.34
2024-01-15T07:24:55.779Z,1.37
2024-01-15T07:25:55.736Z,1.42
2024-01-15T07:26:55.757Z,1.45
2024-01-15T07:27:55.852Z,1.48
2024-01-15T07:28:55.838Z,1.52
2024-01-15T07:29:57.865Z,1.53
2024-01-15T07:30:55.962Z,1.56
2024-01-15T07:31:56.043Z,1.56
2024-01-15T07:32:55.948Z,1.64
2024-01-15T07:33:55.951Z,1.68
2024-01-15T07:34:56.111Z,1.70
2024-01-15T07:35:55.886Z,1.76
2024-01-15T07:36:55.958Z,1.79
2024-01-15T07:37:55.903Z,1.88
2024-01-15T07:38:55.877Z,1.97
2024-01-15T07:39:55.937Z,2.04
2024-01-15T07:40:55.913Z,2.08
2024-01-15T07:41:56.037Z,2.14
2024-01-15T07:42:55.966Z,2.17
2024-01-15T07:43:55.928Z,2.15
2024-01-15T07:44:55.892Z,2.08
2024-01-15T07:45:56.000Z,2.12
2024-01-15T07:46:55.872Z,2.05
2024-01-15T07:47:55.940Z,2.03
2024-01-15T07:48:55.980Z,2.03
2024-01-15T07:49:55.948Z,1.97
2024-01-15T07:50:55.890Z,1.99
2024-01-15T07:51:56.159Z,1.92
2024-01-15T07:52:55.914Z,1.90
2024-01-15T07:53:55.869Z,1.87
2024-01-15T07:54:55.943Z,1.80
2024-01-15T07:55:55.885Z,1.82
2024-01-15T07:56:55.936Z,1.82
2024-01-15T07:58:02.559Z,1.81
2024-01-15T07:58:56.910Z,1.81
2024-01-15T07:59:55.885Z,1.82
2024-01-15T08:00:56.009Z,1.83
2024-01-15T08:01:56.138Z,1.84
2024-01-15T08:02:55.933Z,1.85
2024-01-15T08:03:55.994Z,1.87
2024-01-15T08:04:55.938Z,1.84
2024-01-15T08:05:55.925Z,1.84
2024-01-15T08:06:56.131Z,1.81
2024-01-15T08:07:58.403Z,1.81
2024-01-15T08:08:55.958Z,1.79
2024-01-15T08:09:56.011Z,1.77
2024-01-15T08:10:55.901Z,1.72
2024-01-15T08:11:55.901Z,1.72
2024-01-15T08:12:56.026Z,1.67
2024-01-15T08:13:55.910Z,1.69
2024-01-15T08:14:55.954Z,1.64
2024-01-15T08:15:55.978Z,1.62
2024-01-15T08:16:55.973Z,1.58
2024-01-15T08:17:55.991Z,1.56
2024-01-15T08:18:56.132Z,1.54
2024-01-15T08:19:55.993Z,1.54
2024-01-15T08:20:55.975Z,1.53
2024-01-15T08:21:56.022Z,1.49
2024-01-15T08:22:55.952Z,1.49
2024-01-15T08:23:55.945Z,1.48
2024-01-15T08:24:55.960Z,1.44
2024-01-15T08:25:55.979Z,1.41
2024-01-15T08:26:56.004Z,1.40
2024-01-15T08:27:55.986Z,1.38
2024-01-15T08:28:55.957Z,1.40
2024-01-15T08:29:55.947Z,1.40
2024-01-15T08:30:56.069Z,1.36
2024-01-15T08:31:56.016Z,1.33
2024-01-15T08:32:58.340Z,1.31
2024-01-15T08:33:56.025Z,1.31
2024-01-15T08:34:56.596Z,1.31
2024-01-15T08:35:55.927Z,1.32
2024-01-15T08:36:56.022Z,1.32
2024-01-15T08:37:55.941Z,1.39
2024-01-15T08:38:56.030Z,1.46
2024-01-15T08:39:56.110Z,1.63
2024-01-15T08:40:55.993Z,1.82
2024-01-15T08:41:55.961Z,2.01
2024-01-15T08:42:56.019Z,2.18
2024-01-15T08:43:55.970Z,2.39
2024-01-15T08:44:55.984Z,2.63
2024-01-15T08:45:56.035Z,3.16
2024-01-15T08:46:56.579Z,3.72
2024-01-15T08:47:55.983Z,4.29
2024-01-15T08:48:56.039Z,4.85
2024-01-15T08:49:55.989Z,5.54
2024-01-15T08:50:55.954Z,6.08
2024-01-15T08:51:56.050Z,6.56
2024-01-15T08:52:56.022Z,6.89
2024-01-15T08:53:55.981Z,7.43
2024-01-15T08:54:55.972Z,7.99
2024-01-15T08:55:55.997Z,8.24
2024-01-15T08:56:56.005Z,8.42
2024-01-15T08:57:56.024Z,8.91
2024-01-15T08:58:55.984Z,9.23
2024-01-15T08:59:56.419Z,9.84
2024-01-15T09:00:56.067Z,10.10
2024-01-15T09:01:55.986Z,10.63
2024-01-15T09:02:55.993Z,10.75
2024-01-15T09:03:56.069Z,10.89
2024-01-15T09:04:56.082Z,10.60
2024-01-15T09:05:56.119Z,10.72
2024-01-15T09:06:56.029Z,11.05
2024-01-15T09:07:56.022Z,11.26
2024-01-15T09:08:56.002Z,11.39
2024-01-15T09:09:56.192Z,11.39
2024-01-15T09:10:56.040Z,11.48
2024-01-15T09:11:56.079Z,11.55
2024-01-15T09:12:56.244Z,11.44
2024-01-15T09:13:56.249Z,11.55
2024-01-15T09:14:56.264Z,11.42
2024-01-15T09:15:56.483Z,11.38
2024-01-15T09:16:56.329Z,11.39
2024-01-15T09:17:56.401Z,11.23
2024-01-15T09:18:56.637Z,11.21
2024-01-15T09:19:56.596Z,11.11
2024-01-15T09:20:56.584Z,11.42
2024-01-15T09:21:56.612Z,11.30
2024-01-15T09:22:56.691Z,10.87
2024-01-15T09:23:56.692Z,10.74
2024-01-15T09:24:56.851Z,10.98
2024-01-15T09:25:57.566Z,10.85
2024-01-15T09:26:57.144Z,10.79
2024-01-15T09:27:56.927Z,10.66
2024-01-15T09:28:56.980Z,10.45
2024-01-15T09:29:56.997Z,10.34
2024-01-15T09:30:57.235Z,10.22
2024-01-15T09:31:57.234Z,10.19
2024-01-15T09:32:57.687Z,10.18
2024-01-15T09:33:57.400Z,9.95
2024-01-15T09:34:57.315Z,10.00
2024-01-15T09:35:57.320Z,9.92
2024-01-15T09:36:57.359Z,9.63
2024-01-15T09:37:57.642Z,9.29
2024-01-15T09:38:58.082Z,8.93
2024-01-15T09:39:57.490Z,8.70
2024-01-15T09:40:57.549Z,8.21
2024-01-15T09:41:57.589Z,8.07
2024-01-15T09:42:57.596Z,7.96
2024-01-15T09:43:57.587Z,7.65
2024-01-15T09:44:57.634Z,7.78
2024-01-15T09:45:57.696Z,8.86
2024-01-15T09:46:57.694Z,8.37
2024-01-15T09:47:58.636Z,7.09
2024-01-15T09:48:57.893Z,5.93
2024-01-15T09:49:58.677Z,5.42
2024-01-15T09:50:57.820Z,4.88
2024-01-15T09:52:06.085Z,4.49
2024-01-15T09:52:59.072Z,4.19
2024-01-15T09:53:57.860Z,3.80
2024-01-15T09:54:57.977Z,3.54
2024-01-15T09:55:57.875Z,3.37
2024-01-15T09:56:57.876Z,3.20
2024-01-15T09:57:57.906Z,2.94
2024-01-15T09:58:58.622Z,2.89
2024-01-15T09:59:57.864Z,2.92
2024-01-15T10:00:57.980Z,2.95
2024-01-15T10:01:57.958Z,2.87
2024-01-15T10:02:58.120Z,2.66
2024-01-15T10:03:57.947Z,2.66
2024-01-15T10:04:57.949Z,2.42
2024-01-15T10:05:57.980Z,2.28
2024-01-15T10:06:57.984Z,2.16
2024-01-15T10:07:57.977Z,1.82
2024-01-15T10:08:58.168Z,1.63
2024-01-15T10:09:58.127Z,1.45
2024-01-15T10:10:58.117Z,1.34
2024-01-15T10:11:58.111Z,1.32
2024-01-15T10:12:58.222Z,1.31
2024-01-15T10:13:58.235Z,1.29
2024-01-15T10:14:58.276Z,1.27
2024-01-15T10:15:58.443Z,1.26
2024-01-15T10:16:58.332Z,1.27
2024-01-15T10:17:58.504Z,1.26
2024-01-15T10:18:58.715Z,1.26
2024-01-15T10:19:58.499Z,1.23
2024-01-15T10:20:58.440Z,1.23
2024-01-15T10:21:58.542Z,1.24
2024-01-15T10:22:58.526Z,1.24
2024-01-15T10:23:58.531Z,1.25
2024-01-15T10:24:58.660Z,1.25
2024-01-15T10:25:58.653Z,1.25
2024-01-15T10:26:58.714Z,1.26
2024-01-15T10:27:58.924Z,1.24
2024-01-15T10:28:59.099Z,1.22
2024-01-15T10:29:58.852Z,1.20
2024-01-15T10:30:58.972Z,1.24
2024-01-15T10:31:59.016Z,1.26
2024-01-15T10:32:58.982Z,1.21
2024-01-15T10:33:59.052Z,1.08
2024-01-15T10:34:59.069Z,0.98
2024-01-15T10:35:59.099Z,0.95
2024-01-15T10:36:59.158Z,0.93
2024-01-15T10:37:59.054Z,0.92
2024-01-15T10:38:59.125Z,0.93
2024-01-15T10:39:59.122Z,0.90
2024-01-15T10:40:59.172Z,0.92
2024-01-15T10:41:59.189Z,0.86
2024-01-15T10:42:59.289Z,0.82
2024-01-15T10:43:59.324Z,0.83
2024-01-15T10:44:59.313Z,0.81
2024-01-15T10:45:59.317Z,0.81
2024-01-15T10:46:59.364Z,0.78
2024-01-15T10:47:59.458Z,0.77
2024-01-15T10:48:59.655Z,0.73
2024-01-15T10:49:59.563Z,0.68
2024-01-15T10:50:59.618Z,0.66
2024-01-15T10:51:59.894Z,0.66
2024-01-15T10:52:59.770Z,0.65
2024-01-15T10:53:59.597Z,0.64
2024-01-15T10:55:01.167Z,0.66
2024-01-15T10:55:59.648Z,0.66
2024-01-15T10:56:59.734Z,0.67
2024-01-15T10:57:59.985Z,0.70
2024-01-15T10:59:00.860Z,0.72
2024-01-15T10:59:59.919Z,0.73
2024-01-15T11:01:00.007Z,0.72
2024-01-15T11:02:00.056Z,0.72
2024-01-15T11:03:00.077Z,0.72
2024-01-15T11:04:00.211Z,0.74
2024-01-15T11:05:00.200Z,0.73
2024-01-15T11:06:00.249Z,0.72
2024-01-15T11:07:00.308Z,0.74
2024-01-15T11:08:00.208Z,0.73
2024-01-15T11:09:00.537Z,0.75
2024-01-15T11:10:00.419Z,0.73
2024-01-15T11:11:00.293Z,0.74
2024-01-15T11:12:00.342Z,0.74
2024-01-15T11:13:00.355Z,0.75
2024-01-15T11:14:00.762Z,0.74
2024-01-15T11:15:00.368Z,0.76
2024-01-15T11:16:00.446Z,0.75
2024-01-15T11:17:00.512Z,0.75
2024-01-15T11:18:00.610Z,0.76
2024-01-15T11:19:00.754Z,0.76
2024-01-15T11:20:00.627Z,0.75
2024-01-15T11:21:00.520Z,0.75
2024-01-15T11:22:00.749Z,0.75
2024-01-15T11:23:00.577Z,0.73
2024-01-15T11:24:01.412Z,0.72
2024-01-15T11:25:00.680Z,0.75
2024-01-15T11:26:00.646Z,0.73
2024-01-15T11:27:00.706Z,0.74
2024-01-15T11:28:00.794Z,0.72
2024-01-15T11:29:01.507Z,0.71
2024-01-15T11:30:00.794Z,0.72
2024-01-15T11:31:00.950Z,0.72
2024-01-15T11:32:00.999Z,0.71
2024-01-15T11:33:01.008Z,0.74
2024-01-15T11:34:01.366Z,0.71
2024-01-15T11:35:01.416Z,0.72
2024-01-15T11:36:01.021Z,0.72
2024-01-15T11:37:01.165Z,0.73
2024-01-15T11:38:01.115Z,0.73
2024-01-15T11:39:01.177Z,0.72
2024-01-15T11:40:01.285Z,0.70
2024-01-15T11:41:01.192Z,0.65
2024-01-15T11:42:01.228Z,0.61
2024-01-15T11:43:01.421Z,0.58
2024-01-15T11:44:01.657Z,0.55
2024-01-15T11:45:01.302Z,0.51
2024-01-15T11:46:01.409Z,0.50
2024-01-15T11:47:01.297Z,0.50
2024-01-15T11:48:01.431Z,0.50
2024-01-15T11:49:01.748Z,0.52
2024-01-15T11:50:01.854Z,0.52
2024-01-15T11:51:01.438Z,0.51
2024-01-15T11:52:01.491Z,0.51
2024-01-15T11:53:04.589Z,0.51
2024-01-15T11:54:02.667Z,0.51
2024-01-15T11:55:01.520Z,0.50
2024-01-15T11:56:01.545Z,0.48
2024-01-15T11:57:01.518Z,0.47
2024-01-15T11:58:01.620Z,0.47
2024-01-15T11:59:04.423Z,0.50
2024-01-15T12:00:01.647Z,0.48
2024-01-15T12:01:01.763Z,0.46
2024-01-15T12:02:01.622Z,0.45
2024-01-15T12:03:01.508Z,0.41
2024-01-15T12:04:01.759Z,0.38
2024-01-15T12:05:01.612Z,0.41
2024-01-15T12:06:01.552Z,0.46
2024-01-15T12:07:01.617Z,0.50
2024-01-15T12:08:01.552Z,0.50
2024-01-15T12:09:01.547Z,0.51
2024-01-15T12:10:01.565Z,0.53
2024-01-15T12:11:01.581Z,0.51
2024-01-15T12:12:01.568Z,0.51
2024-01-15T12:13:01.634Z,0.50
2024-01-15T12:14:01.588Z,0.50
2024-01-15T12:15:01.970Z,0.50
2024-01-15T12:16:01.581Z,0.50
2024-01-15T12:17:04.474Z,0.50
2024-01-15T12:18:01.725Z,0.49
2024-01-15T12:19:01.725Z,0.46
2024-01-15T12:20:01.597Z,0.44
2024-01-15T12:21:01.574Z,0.41
2024-01-15T12:22:01.534Z,0.40
2024-01-15T12:23:03.444Z,0.44
2024-01-15T12:24:01.551Z,0.42
2024-01-15T12:25:01.550Z,0.41
2024-01-15T12:26:01.565Z,0.39
2024-01-15T12:27:01.526Z,0.37
2024-01-15T12:28:01.593Z,0.37
2024-01-15T12:29:01.537Z,0.45
2024-01-15T12:30:02.164Z,0.50
2024-01-15T12:31:01.837Z,0.50
2024-01-15T12:32:02.189Z,0.50
2024-01-15T12:33:02.248Z,0.50
2024-01-15T12:34:01.678Z,0.50
2024-01-15T12:35:04.336Z,0.50
2024-01-15T12:36:01.630Z,0.50
2024-01-15T12:37:01.627Z,0.50
2024-01-15T12:38:01.619Z,0.47
2024-01-15T12:39:01.578Z,0.46
2024-01-15T12:40:01.617Z,0.45
2024-01-15T12:41:01.576Z,0.51
2024-01-15T12:42:01.582Z,0.51
2024-01-15T12:43:01.624Z,0.52
2024-01-15T12:44:01.599Z,0.51
2024-01-15T12:45:01.601Z,0.50
2024-01-15T12:46:01.611Z,0.50
2024-01-15T12:47:01.606Z,0.51
2024-01-15T12:48:01.771Z,0.50
2024-01-15T12:49:01.651Z,0.50
2024-01-15T12:50:09.488Z,0.50
2024-01-15T12:51:02.590Z,0.49
2024-01-15T12:52:02.158Z,0.46
2024-01-15T12:53:01.611Z,0.45
2024-01-15T12:54:01.606Z,0.43
2024-01-15T12:55:01.615Z,0.40
2024-01-15T12:56:01.627Z,0.48
2024-01-15T12:57:01.646Z,0.51
2024-01-15T12:58:01.684Z,0.50
2024-01-15T12:59:01.661Z,0.50
2024-01-15T13:00:01.626Z,0.50
2024-01-15T13:01:01.662Z,0.50
2024-01-15T13:02:01.622Z,0.51
2024-01-15T13:03:01.629Z,0.50
2024-01-15T13:04:01.790Z,0.52
2024-01-15T13:05:01.942Z,0.51
2024-01-15T13:06:01.785Z,0.51
2024-01-15T13:07:01.816Z,0.53
2024-01-15T13:08:01.702Z,0.52
2024-01-15T13:09:01.719Z,0.52
2024-01-15T13:10:01.765Z,0.51
2024-01-15T13:11:01.881Z,0.51
2024-01-15T13:12:01.838Z,0.51
2024-01-15T13:13:02.008Z,0.58
2024-01-15T13:14:01.984Z,0.67
2024-01-15T13:15:01.961Z,0.71
2024-01-15T13:16:02.077Z,0.79
2024-01-15T13:17:02.020Z,0.83
2024-01-15T13:18:02.084Z,0.91
2024-01-15T13:19:02.225Z,0.96